»·PEaware :: WAT847 KPHX-KBUR

WAT847 :: KPHX-KBUR

FLIGHT INFORMATION

Flight Status: Arrived
Operator:
Walker Air Transport
More flights by this operator :: More flights under this callsign
Pilot: Charlton B. (28558)
Aircraft: EMBRAER EMB-170/175
(E170)
More flights by this aircraft type
Origin: KPHX Phoenix Sky Harbor Intl
United States
Destination: KBUR Bob Hope-Burbank
United States
More flights between these airports :: More routes between these airports
Route: KEENS2 HRRBR PHRED THRNE3
File this flight plan on PilotEdge
Remarks: RMK / SIMBRIEF
Altitude:
(Current/Filed)
32,000ft
Speed:
(Current/Filed)
406kts
Departed: 21-Mar-22 08:21 AM
Arrived: 21-Mar-22 09:30 AM
Distance/Time
Traveled:
319nm/1:09
Distance/Time
To Go:
Arrived

Flight Plot

Page will automatically refresh every two minutes.

Flight plan parsing failed; only flown route is shown


Map Options




Map Legend


Flown Route
Filed Route
Departure Airport
Arrival Airport
Navaid (VOR, NDB)
Fix

Horizontal Profiles

Position Reports

Time Latitude Longitude Heading Altitude Ground
Speed
21-Mar-22 07:36 33.437285 -111.994851 90 1129ft 0kts
21-Mar-22 07:37 33.437285 -111.994851 90 1129ft 0kts
21-Mar-22 07:38 33.437285 -111.994851 90 1129ft 0kts
21-Mar-22 07:39 33.437285 -111.994851 90 1129ft 0kts
21-Mar-22 07:40 33.437285 -111.994851 90 1129ft 0kts
21-Mar-22 07:41 33.437285 -111.994851 90 1129ft 0kts
21-Mar-22 07:42 33.437285 -111.994851 90 1129ft 0kts
21-Mar-22 07:43 33.437285 -111.994851 90 1129ft 0kts
21-Mar-22 07:44 33.437285 -111.994851 90 1129ft 0kts
21-Mar-22 07:45 33.437285 -111.994851 90 1129ft 0kts
21-Mar-22 07:46 33.437285 -111.994851 90 1129ft 0kts
21-Mar-22 07:47 33.437285 -111.994851 90 1129ft 0kts
21-Mar-22 07:48 33.437285 -111.994851 90 1129ft 0kts
21-Mar-22 07:49 33.437285 -111.994851 90 1129ft 0kts
21-Mar-22 07:50 33.437285 -111.994851 90 1129ft 0kts
21-Mar-22 07:51 33.437285 -111.994851 90 1129ft 0kts
21-Mar-22 07:52 33.437285 -111.994851 90 1129ft 0kts
21-Mar-22 07:53 33.437285 -111.994851 90 1129ft 0kts
21-Mar-22 07:54 33.437285 -111.994851 90 1129ft 0kts
21-Mar-22 07:55 33.437285 -111.994851 90 1129ft 0kts
21-Mar-22 07:56 33.437285 -111.994851 90 1129ft 0kts
21-Mar-22 07:57 33.437285 -111.994851 90 1129ft 0kts
21-Mar-22 07:58 33.437285 -111.994851 90 1129ft 0kts
21-Mar-22 07:59 33.437285 -111.994851 90 1129ft 0kts
21-Mar-22 08:00 33.437285 -111.994851 90 1129ft 0kts
21-Mar-22 08:01 33.437285 -111.994851 90 1129ft 0kts
21-Mar-22 08:02 33.437285 -111.994851 90 1129ft 0kts
21-Mar-22 08:03 33.437285 -111.994851 90 1129ft 0kts
21-Mar-22 08:04 33.437285 -111.994851 90 1129ft 0kts
21-Mar-22 08:05 33.437285 -111.994851 90 1129ft 0kts
21-Mar-22 08:06 33.437285 -111.994851 90 1129ft 0kts
21-Mar-22 08:07 33.437285 -111.994851 90 1129ft 0kts
21-Mar-22 08:09 33.437285 -111.994851 90 1129ft 0kts
21-Mar-22 08:10 33.437285 -111.994970 90 1129ft 1kts
21-Mar-22 08:11 33.437127 -111.995308 9 1129ft 1kts
21-Mar-22 08:12 33.437045 -111.995319 353 1129ft 0kts
21-Mar-22 08:13 33.437045 -111.995319 353 1129ft 0kts
21-Mar-22 08:14 33.437045 -111.995319 353 1129ft 0kts
21-Mar-22 08:15 33.437893 -111.995356 358 1130ft 4kts
21-Mar-22 08:16 33.439420 -111.995314 2 1133ft 5kts
21-Mar-22 08:17 33.439729 -111.993528 92 1134ft 8kts
21-Mar-22 08:18 33.439759 -111.991296 16 1134ft 0kts
21-Mar-22 08:19 33.439759 -111.991296 16 1134ft 0kts
21-Mar-22 08:20 33.440814 -111.991825 272 1136ft 0kts
21-Mar-22 08:21 33.437461 -112.025798 256 2040ft 185kts
21-Mar-22 08:22 33.417258 -112.092112 253 4970ft 241kts
21-Mar-22 08:23 33.395219 -112.170818 258 7917ft 255kts
21-Mar-22 08:24 33.399091 -112.254369 279 7985ft 251kts
21-Mar-22 08:25 33.408529 -112.340347 281 10737ft 270kts
21-Mar-22 08:26 33.424212 -112.439316 285 12791ft 334kts
21-Mar-22 08:27 33.441836 -112.551054 287 15936ft 349kts
21-Mar-22 08:28 33.449473 -112.669646 278 18653ft 369kts
21-Mar-22 08:29 33.453574 -112.794249 287 21029ft 375kts
21-Mar-22 08:30 33.474480 -112.917086 291 23246ft 381kts
21-Mar-22 08:31 33.496946 -113.042739 294 25206ft 390kts
21-Mar-22 08:32 33.520264 -113.171164 295 26905ft 400kts
21-Mar-22 08:32 33.540317 -113.280518 295 28193ft 408kts
21-Mar-22 08:34 33.569558 -113.437430 296 29874ft 418kts
21-Mar-22 08:35 33.594941 -113.573971 296 31562ft 418kts
21-Mar-22 08:36 33.619525 -113.708050 296 32062ft 415kts
21-Mar-22 08:36 33.640653 -113.820045 297 32077ft 412kts
21-Mar-22 08:37 33.647116 -113.963453 283 32085ft 442kts
21-Mar-22 08:39 33.647055 -114.133568 289 32081ft 428kts
21-Mar-22 08:40 33.659926 -114.275004 291 32087ft 425kts
21-Mar-22 08:40 33.671107 -114.392170 291 32092ft 425kts
21-Mar-22 08:41 33.684677 -114.533192 291 32099ft 427kts
21-Mar-22 08:42 33.698280 -114.674107 290 32099ft 427kts
21-Mar-22 08:43 33.711937 -114.815373 291 32103ft 426kts
21-Mar-22 08:44 33.725580 -114.956492 291 32109ft 426kts
21-Mar-22 08:45 33.739072 -115.096550 289 32094ft 420kts
21-Mar-22 08:46 33.753132 -115.238789 287 31103ft 446kts
21-Mar-22 08:47 33.767579 -115.384118 287 29313ft 439kts
21-Mar-22 08:48 33.782214 -115.530130 287 27794ft 433kts
21-Mar-22 08:49 33.796800 -115.674272 285 26317ft 426kts
21-Mar-22 08:50 33.810546 -115.813823 286 24902ft 417kts
21-Mar-22 08:51 33.823732 -115.951197 285 23549ft 408kts
21-Mar-22 08:52 33.837559 -116.085095 286 22283ft 401kts
21-Mar-22 08:53 33.848556 -116.218045 283 21111ft 396kts
21-Mar-22 08:54 33.858978 -116.348487 284 19966ft 394kts
21-Mar-22 08:55 33.870614 -116.476206 285 17157ft 368kts
21-Mar-22 08:56 33.886626 -116.595367 288 15684ft 360kts
21-Mar-22 08:57 33.904841 -116.712630 287 14777ft 356kts
21-Mar-22 08:58 33.922910 -116.829083 287 13939ft 350kts
21-Mar-22 08:59 33.941537 -116.943108 288 13099ft 345kts
21-Mar-22 09:00 33.966160 -117.052759 290 11513ft 338kts
21-Mar-22 09:01 33.990882 -117.158386 289 10682ft 299kts
21-Mar-22 09:02 34.012382 -117.249372 290 10080ft 278kts
21-Mar-22 09:03 34.033776 -117.338511 290 10018ft 267kts
21-Mar-22 09:04 34.053967 -117.420517 291 9985ft 253kts
21-Mar-22 09:05 34.071794 -117.503024 284 9852ft 257kts
21-Mar-22 09:06 34.084691 -117.586965 285 9457ft 253kts
21-Mar-22 09:07 34.097649 -117.670448 284 9072ft 252kts
21-Mar-22 09:08 34.110557 -117.753375 284 8724ft 251kts
21-Mar-22 09:09 34.123509 -117.836202 284 8382ft 251kts
21-Mar-22 09:10 34.136336 -117.917497 284 8013ft 229kts
21-Mar-22 09:11 34.146482 -117.984597 268 8013ft 201kts
21-Mar-22 09:12 34.136772 -118.051363 264 8012ft 202kts
21-Mar-22 09:13 34.126775 -118.119293 264 7161ft 202kts
21-Mar-22 09:14 34.117980 -118.184794 264 6023ft 203kts
21-Mar-22 09:15 34.115680 -118.251013 271 5995ft 189kts
21-Mar-22 09:16 34.113985 -118.316427 271 6000ft 194kts
21-Mar-22 09:17 34.112192 -118.382529 271 6003ft 198kts
21-Mar-22 09:18 34.110151 -118.449688 271 5982ft 203kts
21-Mar-22 09:19 34.108596 -118.518683 271 4336ft 200kts
21-Mar-22 09:20 34.108169 -118.585066 272 3998ft 194kts
21-Mar-22 09:21 34.107508 -118.651485 271 4011ft 197kts
21-Mar-22 09:22 34.137500 -118.686586 1 4019ft 179kts
21-Mar-22 09:23 34.167386 -118.649942 60 4024ft 181kts
21-Mar-22 09:24 34.189902 -118.594120 60 3002ft 174kts
21-Mar-22 09:25 34.200021 -118.536044 85 3009ft 185kts
21-Mar-22 09:26 34.199423 -118.478998 85 2608ft 158kts
21-Mar-22 09:27 34.198784 -118.431710 86 1734ft 125kts
21-Mar-22 09:28 34.198220 -118.390493 88 1119ft 120kts
21-Mar-22 09:29 34.197791 -118.356623 93 710ft 19kts
21-Mar-22 09:30 34.197125 -118.351991 174 699ft 7kts

Navigation Log

Ident Type
Flight plan parsing failed, navigation log unavailable